sensor_id;sensor_type;location;lat;lon;timestamp;temperature;humidity
8711;DHT22;4392;47.400;8.062;2024-03-08T00:01:53;7.10;99.90
8711;DHT22;4392;47.400;8.062;2024-03-08T00:04:18;7.10;99.90
8711;DHT22;4392;47.400;8.062;2024-03-08T00:06:44;7.10;99.90
8711;DHT22;4392;47.400;8.062;2024-03-08T00:09:12;7.00;99.90
8711;DHT22;4392;47.400;8.062;2024-03-08T00:11:37;9.30;99.90
8711;DHT22;4392;47.400;8.062;2024-03-08T00:14:03;10.20;99.90
8711;DHT22;4392;47.400;8.062;2024-03-08T00:16:32;9.90;99.90
8711;DHT22;4392;47.400;8.062;2024-03-08T00:18:59;9.10;98.20
8711;DHT22;4392;47.400;8.062;2024-03-08T00:21:24;8.40;96.10
8711;DHT22;4392;47.400;8.062;2024-03-08T00:23:52;8.00;99.90
8711;DHT22;4392;47.400;8.062;2024-03-08T00:26:38;8.10;99.90
8711;DHT22;4392;47.400;8.062;2024-03-08T00:29:03;8.00;99.90
8711;DHT22;4392;47.400;8.062;2024-03-08T00:31:29;8.00;99.90
8711;DHT22;4392;47.400;8.062;2024-03-08T00:33:57;7.90;97.90
8711;DHT22;4392;47.400;8.062;2024-03-08T00:36:23;7.70;97.20
8711;DHT22;4392;47.400;8.062;2024-03-08T00:38:49;7.60;97.10
8711;DHT22;4392;47.400;8.062;2024-03-08T00:41:14;7.50;97.10
8711;DHT22;4392;47.400;8.062;2024-03-08T00:43:40;7.50;97.00
8711;DHT22;4392;47.400;8.062;2024-03-08T00:46:06;7.50;96.90
8711;DHT22;4392;47.400;8.062;2024-03-08T00:48:31;7.40;97.00
8711;DHT22;4392;47.400;8.062;2024-03-08T00:50:57;9.00;99.90
8711;DHT22;4392;47.400;8.062;2024-03-08T00:53:23;8.60;99.80
8711;DHT22;4392;47.400;8.062;2024-03-08T00:55:48;8.00;99.90
8711;DHT22;4392;47.400;8.062;2024-03-08T00:58:14;7.70;99.80
8711;DHT22;4392;47.400;8.062;2024-03-08T01:00:40;7.70;99.90
8711;DHT22;4392;47.400;8.062;2024-03-08T01:03:06;8.00;99.90
8711;DHT22;4392;47.400;8.062;2024-03-08T01:05:32;9.80;99.90
8711;DHT22;4392;47.400;8.062;2024-03-08T01:07:58;10.60;99.90
8711;DHT22;4392;47.400;8.062;2024-03-08T01:10:24;11.10;99.90
8711;DHT22;4392;47.400;8.062;2024-03-08T01:12:49;11.30;99.90
8711;DHT22;4392;47.400;8.062;2024-03-08T01:15:15;11.50;98.60
8711;DHT22;4392;47.400;8.062;2024-03-08T01:17:41;11.50;96.40
8711;DHT22;4392;47.400;8.062;2024-03-08T01:20:07;10.90;87.90
8711;DHT22;4392;47.400;8.062;2024-03-08T01:22:36;9.70;90.30
8711;DHT22;4392;47.400;8.062;2024-03-08T01:25:02;8.80;91.60
8711;DHT22;4392;47.400;8.062;2024-03-08T01:27:30;8.30;92.60
8711;DHT22;4392;47.400;8.062;2024-03-08T01:29:56;7.70;93.30
8711;DHT22;4392;47.400;8.062;2024-03-08T01:32:22;7.60;94.10
8711;DHT22;4392;47.400;8.062;2024-03-08T01:34:49;7.50;94.40
8711;DHT22;4392;47.400;8.062;2024-03-08T01:37:14;7.40;94.50
8711;DHT22;4392;47.400;8.062;2024-03-08T01:39:42;7.30;94.90
8711;DHT22;4392;47.400;8.062;2024-03-08T01:42:08;7.30;95.20
8711;DHT22;4392;47.400;8.062;2024-03-08T01:44:34;8.70;99.90
8711;DHT22;4392;47.400;8.062;2024-03-08T01:47:00;8.60;96.10
8711;DHT22;4392;47.400;8.062;2024-03-08T01:49:26;8.10;95.90
8711;DHT22;4392;47.400;8.062;2024-03-08T01:51:53;7.90;96.20
8711;DHT22;4392;47.400;8.062;2024-03-08T01:54:22;7.70;96.30
8711;DHT22;4392;47.400;8.062;2024-03-08T01:56:49;7.70;96.40
8711;DHT22;4392;47.400;8.062;2024-03-08T01:59:15;7.60;96.40
8711;DHT22;4392;47.400;8.062;2024-03-08T02:01:42;7.40;96.50
8711;DHT22;4392;47.400;8.062;2024-03-08T02:04:07;7.30;96.80
8711;DHT22;4392;47.400;8.062;2024-03-08T02:06:33;7.30;97.10
8711;DHT22;4392;47.400;8.062;2024-03-08T02:09:00;7.30;96.70
8711;DHT22;4392;47.400;8.062;2024-03-08T02:11:26;7.20;96.60
8711;DHT22;4392;47.400;8.062;2024-03-08T02:13:52;7.30;97.00
8711;DHT22;4392;47.400;8.062;2024-03-08T02:16:21;7.20;96.70
8711;DHT22;4392;47.400;8.062;2024-03-08T02:18:47;7.20;97.10
8711;DHT22;4392;47.400;8.062;2024-03-08T02:21:14;7.20;97.30
8711;DHT22;4392;47.400;8.062;2024-03-08T02:23:43;7.20;97.50
8711;DHT22;4392;47.400;8.062;2024-03-08T02:26:09;7.20;98.10
8711;DHT22;4392;47.400;8.062;2024-03-08T02:28:35;7.30;98.10
8711;DHT22;4392;47.400;8.062;2024-03-08T02:31:01;7.40;98.00
8711;DHT22;4392;47.400;8.062;2024-03-08T02:33:28;7.40;98.40
8711;DHT22;4392;47.400;8.062;2024-03-08T02:35:54;7.40;97.80
8711;DHT22;4392;47.400;8.062;2024-03-08T02:38:22;7.40;97.70
8711;DHT22;4392;47.400;8.062;2024-03-08T02:40:50;7.40;97.50
8711;DHT22;4392;47.400;8.062;2024-03-08T02:43:17;7.40;97.70
8711;DHT22;4392;47.400;8.062;2024-03-08T02:45:44;7.40;97.70
8711;DHT22;4392;47.400;8.062;2024-03-08T02:48:11;7.40;97.60
8711;DHT22;4392;47.400;8.062;2024-03-08T02:50:37;7.40;97.70
8711;DHT22;4392;47.400;8.062;2024-03-08T02:53:05;7.30;99.90
8711;DHT22;4392;47.400;8.062;2024-03-08T02:55:31;9.20;99.90
8711;DHT22;4392;47.400;8.062;2024-03-08T02:57:59;8.70;99.10
8711;DHT22;4392;47.400;8.062;2024-03-08T03:00:24;8.20;99.20
8711;DHT22;4392;47.400;8.062;2024-03-08T03:02:50;7.80;99.20
8711;DHT22;4392;47.400;8.062;2024-03-08T03:05:20;9.40;99.90
8711;DHT22;4392;47.400;8.062;2024-03-08T03:07:45;9.40;99.90
8711;DHT22;4392;47.400;8.062;2024-03-08T03:10:11;9.30;99.90
8711;DHT22;4392;47.400;8.062;2024-03-08T03:12:37;9.40;99.90
8711;DHT22;4392;47.400;8.062;2024-03-08T03:15:04;9.50;99.90
8711;DHT22;4392;47.400;8.062;2024-03-08T03:17:30;9.30;99.90
8711;DHT22;4392;47.400;8.062;2024-03-08T03:19:55;10.30;99.70
8711;DHT22;4392;47.400;8.062;2024-03-08T03:22:21;9.40;94.00
8711;DHT22;4392;47.400;8.062;2024-03-08T03:24:47;8.70;98.20
8711;DHT22;4392;47.400;8.062;2024-03-08T03:27:13;8.40;97.90
8711;DHT22;4392;47.400;8.062;2024-03-08T03:29:41;8.10;97.00
8711;DHT22;4392;47.400;8.062;2024-03-08T03:32:15;8.00;96.80
8711;DHT22;4392;47.400;8.062;2024-03-08T03:34:41;7.80;96.70
8711;DHT22;4392;47.400;8.062;2024-03-08T03:37:09;7.70;97.10
8711;DHT22;4392;47.400;8.062;2024-03-08T03:39:38;7.60;97.20
8711;DHT22;4392;47.400;8.062;2024-03-08T03:42:23;7.30;97.60
8711;DHT22;4392;47.400;8.062;2024-03-08T03:44:49;7.30;98.00
8711;DHT22;4392;47.400;8.062;2024-03-08T03:47:15;7.30;98.00
8711;DHT22;4392;47.400;8.062;2024-03-08T03:49:44;7.30;98.10
8711;DHT22;4392;47.400;8.062;2024-03-08T03:52:10;7.20;98.10
8711;DHT22;4392;47.400;8.062;2024-03-08T03:54:39;7.00;99.90
8711;DHT22;4392;47.400;8.062;2024-03-08T03:57:04;6.90;99.90
8711;DHT22;4392;47.400;8.062;2024-03-08T03:59:30;7.10;99.90
8711;DHT22;4392;47.400;8.062;2024-03-08T04:01:56;6.80;99.90
8711;DHT22;4392;47.400;8.062;2024-03-08T04:04:22;6.80;99.90
8711;DHT22;4392;47.400;8.062;2024-03-08T04:06:50;6.80;99.90
8711;DHT22;4392;47.400;8.062;2024-03-08T04:09:16;6.90;99.90
8711;DHT22;4392;47.400;8.062;2024-03-08T04:11:47;7.00;99.90
8711;DHT22;4392;47.400;8.062;2024-03-08T04:14:12;6.40;99.90
8711;DHT22;4392;47.400;8.062;2024-03-08T04:16:38;6.40;99.90
8711;DHT22;4392;47.400;8.062;2024-03-08T04:19:04;6.60;99.90
8711;DHT22;4392;47.400;8.062;2024-03-08T04:21:30;6.80;99.90
8711;DHT22;4392;47.400;8.062;2024-03-08T04:23:56;6.80;99.90
8711;DHT22;4392;47.400;8.062;2024-03-08T04:26:22;6.90;99.90
8711;DHT22;4392;47.400;8.062;2024-03-08T04:28:47;6.90;99.90
8711;DHT22;4392;47.400;8.062;2024-03-08T04:31:13;6.90;99.90
8711;DHT22;4392;47.400;8.062;2024-03-08T04:33:39;6.90;99.90
8711;DHT22;4392;47.400;8.062;2024-03-08T04:36:05;6.90;99.90
8711;DHT22;4392;47.400;8.062;2024-03-08T04:38:31;6.90;99.90
8711;DHT22;4392;47.400;8.062;2024-03-08T04:40:59;7.00;99.90
8711;DHT22;4392;47.400;8.062;2024-03-08T04:43:25;7.00;99.90
8711;DHT22;4392;47.400;8.062;2024-03-08T04:45:52;7.00;99.90
8711;DHT22;4392;47.400;8.062;2024-03-08T04:48:19;6.90;99.90
8711;DHT22;4392;47.400;8.062;2024-03-08T04:50:45;6.90;99.90
8711;DHT22;4392;47.400;8.062;2024-03-08T04:53:11;6.90;99.90
8711;DHT22;4392;47.400;8.062;2024-03-08T04:55:37;6.90;99.90
8711;DHT22;4392;47.400;8.062;2024-03-08T04:58:06;6.80;99.90
8711;DHT22;4392;47.400;8.062;2024-03-08T05:00:32;6.70;99.90
8711;DHT22;4392;47.400;8.062;2024-03-08T05:02:58;6.60;99.90
8711;DHT22;4392;47.400;8.062;2024-03-08T05:05:24;6.70;99.90
8711;DHT22;4392;47.400;8.062;2024-03-08T05:07:50;6.80;99.90
8711;DHT22;4392;47.400;8.062;2024-03-08T05:10:16;6.80;99.90
8711;DHT22;4392;47.400;8.062;2024-03-08T05:12:43;6.80;99.90
8711;DHT22;4392;47.400;8.062;2024-03-08T05:15:09;6.80;99.90
8711;DHT22;4392;47.400;8.062;2024-03-08T05:17:35;6.80;99.90
8711;DHT22;4392;47.400;8.062;2024-03-08T05:20:01;6.80;99.90
8711;DHT22;4392;47.400;8.062;2024-03-08T05:22:27;6.80;99.90
8711;DHT22;4392;47.400;8.062;2024-03-08T05:24:53;6.40;99.90
8711;DHT22;4392;47.400;8.062;2024-03-08T05:27:19;6.60;99.90
8711;DHT22;4392;47.400;8.062;2024-03-08T05:29:44;6.70;99.90
8711;DHT22;4392;47.400;8.062;2024-03-08T05:32:11;6.80;99.90
8711;DHT22;4392;47.400;8.062;2024-03-08T05:34:37;6.80;99.90
8711;DHT22;4392;47.400;8.062;2024-03-08T05:37:03;6.80;99.90
8711;DHT22;4392;47.400;8.062;2024-03-08T05:39:32;6.80;99.90
8711;DHT22;4392;47.400;8.062;2024-03-08T05:41:58;6.60;99.90
8711;DHT22;4392;47.400;8.062;2024-03-08T05:44:26;6.60;99.90
8711;DHT22;4392;47.400;8.062;2024-03-08T05:46:54;6.70;99.90
8711;DHT22;4392;47.400;8.062;2024-03-08T05:49:21;6.70;99.90
8711;DHT22;4392;47.400;8.062;2024-03-08T05:51:47;6.80;99.90
8711;DHT22;4392;47.400;8.062;2024-03-08T05:54:13;6.80;99.90
8711;DHT22;4392;47.400;8.062;2024-03-08T05:56:40;6.80;99.90
8711;DHT22;4392;47.400;8.062;2024-03-08T05:59:10;6.80;99.90
8711;DHT22;4392;47.400;8.062;2024-03-08T06:01:35;6.90;99.90
8711;DHT22;4392;47.400;8.062;2024-03-08T06:04:08;6.90;99.90
8711;DHT22;4392;47.400;8.062;2024-03-08T06:06:34;6.90;99.90
8711;DHT22;4392;47.400;8.062;2024-03-08T06:09:02;6.90;99.90
8711;DHT22;4392;47.400;8.062;2024-03-08T06:11:34;6.80;99.90
8711;DHT22;4392;47.400;8.062;2024-03-08T06:14:00;6.90;99.90
8711;DHT22;4392;47.400;8.062;2024-03-08T06:16:26;6.90;99.90
8711;DHT22;4392;47.400;8.062;2024-03-08T06:18:58;6.90;99.90
8711;DHT22;4392;47.400;8.062;2024-03-08T06:21:24;6.90;99.90
8711;DHT22;4392;47.400;8.062;2024-03-08T06:23:54;6.90;99.90
8711;DHT22;4392;47.400;8.062;2024-03-08T06:26:21;6.90;99.90
8711;DHT22;4392;47.400;8.062;2024-03-08T06:28:47;6.90;99.90
8711;DHT22;4392;47.400;8.062;2024-03-08T06:31:13;7.00;99.90
8711;DHT22;4392;47.400;8.062;2024-03-08T06:33:40;7.00;99.90
8711;DHT22;4392;47.400;8.062;2024-03-08T06:36:06;7.00;99.90
8711;DHT22;4392;47.400;8.062;2024-03-08T06:38:32;7.00;99.90
8711;DHT22;4392;47.400;8.062;2024-03-08T06:40:58;7.00;99.90
8711;DHT22;4392;47.400;8.062;2024-03-08T06:43:24;7.00;99.90
8711;DHT22;4392;47.400;8.062;2024-03-08T06:45:57;6.90;99.90
8711;DHT22;4392;47.400;8.062;2024-03-08T06:48:23;6.90;99.90
8711;DHT22;4392;47.400;8.062;2024-03-08T06:50:49;6.90;99.90
8711;DHT22;4392;47.400;8.062;2024-03-08T06:53:14;6.90;99.90
8711;DHT22;4392;47.400;8.062;2024-03-08T06:55:40;7.00;99.90
8711;DHT22;4392;47.400;8.062;2024-03-08T06:58:06;7.00;99.90
8711;DHT22;4392;47.400;8.062;2024-03-08T07:00:36;7.10;99.90
8711;DHT22;4392;47.400;8.062;2024-03-08T07:03:02;7.20;99.90
8711;DHT22;4392;47.400;8.062;2024-03-08T07:05:29;7.00;99.90
8711;DHT22;4392;47.400;8.062;2024-03-08T07:07:55;7.10;99.90
8711;DHT22;4392;47.400;8.062;2024-03-08T07:10:22;7.10;99.90
8711;DHT22;4392;47.400;8.062;2024-03-08T07:12:50;7.10;99.90
8711;DHT22;4392;47.400;8.062;2024-03-08T07:15:16;7.10;99.90
8711;DHT22;4392;47.400;8.062;2024-03-08T07:17:45;7.10;99.90
8711;DHT22;4392;47.400;8.062;2024-03-08T07:20:11;7.10;99.90
8711;DHT22;4392;47.400;8.062;2024-03-08T07:22:40;7.10;99.90
8711;DHT22;4392;47.400;8.062;2024-03-08T07:25:08;7.20;99.90
8711;DHT22;4392;47.400;8.062;2024-03-08T07:27:47;7.20;99.90
8711;DHT22;4392;47.400;8.062;2024-03-08T07:30:13;7.10;99.90
8711;DHT22;4392;47.400;8.062;2024-03-08T07:32:59;7.20;99.90
8711;DHT22;4392;47.400;8.062;2024-03-08T07:35:28;7.20;99.90
8711;DHT22;4392;47.400;8.062;2024-03-08T07:37:54;7.20;99.90
8711;DHT22;4392;47.400;8.062;2024-03-08T07:40:21;7.20;99.90
8711;DHT22;4392;47.400;8.062;2024-03-08T07:42:47;7.20;99.90
8711;DHT22;4392;47.400;8.062;2024-03-08T07:45:15;7.30;99.90
8711;DHT22;4392;47.400;8.062;2024-03-08T07:47:43;7.30;99.90
8711;DHT22;4392;47.400;8.062;2024-03-08T07:50:09;7.30;99.90
8711;DHT22;4392;47.400;8.062;2024-03-08T07:52:35;7.30;99.90
8711;DHT22;4392;47.400;8.062;2024-03-08T07:55:02;7.30;99.90
8711;DHT22;4392;47.400;8.062;2024-03-08T07:57:29;7.30;99.90
8711;DHT22;4392;47.400;8.062;2024-03-08T07:59:55;7.40;99.90
8711;DHT22;4392;47.400;8.062;2024-03-08T08:02:21;7.40;99.90
8711;DHT22;4392;47.400;8.062;2024-03-08T08:04:47;7.40;99.90
8711;DHT22;4392;47.400;8.062;2024-03-08T08:07:12;7.40;99.90
8711;DHT22;4392;47.400;8.062;2024-03-08T08:09:40;7.40;99.90
8711;DHT22;4392;47.400;8.062;2024-03-08T08:12:08;7.40;99.90
8711;DHT22;4392;47.400;8.062;2024-03-08T08:14:37;7.50;99.90
8711;DHT22;4392;47.400;8.062;2024-03-08T08:17:03;7.50;99.90
8711;DHT22;4392;47.400;8.062;2024-03-08T08:19:29;7.50;99.90
8711;DHT22;4392;47.400;8.062;2024-03-08T08:21:58;7.50;99.90
8711;DHT22;4392;47.400;8.062;2024-03-08T08:24:26;7.60;99.90
8711;DHT22;4392;47.400;8.062;2024-03-08T08:26:52;7.60;99.90
8711;DHT22;4392;47.400;8.062;2024-03-08T08:29:18;7.60;99.90
8711;DHT22;4392;47.400;8.062;2024-03-08T08:31:43;7.50;99.90
8711;DHT22;4392;47.400;8.062;2024-03-08T08:34:09;7.50;99.90
8711;DHT22;4392;47.400;8.062;2024-03-08T08:36:37;7.60;99.90
8711;DHT22;4392;47.400;8.062;2024-03-08T08:39:04;7.60;99.90
8711;DHT22;4392;47.400;8.062;2024-03-08T08:41:30;7.60;99.90
8711;DHT22;4392;47.400;8.062;2024-03-08T08:43:57;7.60;99.90
8711;DHT22;4392;47.400;8.062;2024-03-08T08:46:22;7.60;99.90
8711;DHT22;4392;47.400;8.062;2024-03-08T08:48:48;7.70;99.90
8711;DHT22;4392;47.400;8.062;2024-03-08T08:51:14;7.70;99.90
8711;DHT22;4392;47.400;8.062;2024-03-08T08:53:41;7.70;99.90
8711;DHT22;4392;47.400;8.062;2024-03-08T08:56:08;7.70;99.90
8711;DHT22;4392;47.400;8.062;2024-03-08T08:58:44;7.80;99.90
8711;DHT22;4392;47.400;8.062;2024-03-08T09:01:10;7.70;99.90
8711;DHT22;4392;47.400;8.062;2024-03-08T09:03:36;7.70;99.90
8711;DHT22;4392;47.400;8.062;2024-03-08T09:06:09;7.80;99.90
8711;DHT22;4392;47.400;8.062;2024-03-08T09:08:37;7.80;99.90
8711;DHT22;4392;47.400;8.062;2024-03-08T09:11:06;7.90;99.90
8711;DHT22;4392;47.400;8.062;2024-03-08T09:13:32;7.90;99.90
8711;DHT22;4392;47.400;8.062;2024-03-08T09:15:59;7.90;99.90
8711;DHT22;4392;47.400;8.062;2024-03-08T09:18:25;7.90;99.90
8711;DHT22;4392;47.400;8.062;2024-03-08T09:20:50;7.90;99.90
8711;DHT22;4392;47.400;8.062;2024-03-08T09:23:19;7.90;99.90
8711;DHT22;4392;47.400;8.062;2024-03-08T09:25:45;7.80;99.90
8711;DHT22;4392;47.400;8.062;2024-03-08T09:28:12;7.90;99.90
8711;DHT22;4392;47.400;8.062;2024-03-08T09:30:38;7.90;99.90
8711;DHT22;4392;47.400;8.062;2024-03-08T09:33:05;7.90;99.90
8711;DHT22;4392;47.400;8.062;2024-03-08T09:35:32;7.90;99.90
8711;DHT22;4392;47.400;8.062;2024-03-08T09:37:57;7.80;99.90
8711;DHT22;4392;47.400;8.062;2024-03-08T09:40:23;7.80;99.90
8711;DHT22;4392;47.400;8.062;2024-03-08T09:42:51;7.90;99.90
8711;DHT22;4392;47.400;8.062;2024-03-08T09:45:20;8.00;99.90
8711;DHT22;4392;47.400;8.062;2024-03-08T09:47:47;8.00;99.90
8711;DHT22;4392;47.400;8.062;2024-03-08T09:50:14;8.00;99.90
8711;DHT22;4392;47.400;8.062;2024-03-08T09:52:47;8.00;99.90
8711;DHT22;4392;47.400;8.062;2024-03-08T09:55:13;8.00;99.90
8711;DHT22;4392;47.400;8.062;2024-03-08T09:57:43;8.10;99.90
8711;DHT22;4392;47.400;8.062;2024-03-08T10:00:27;8.10;99.90
8711;DHT22;4392;47.400;8.062;2024-03-08T10:02:53;8.10;99.90
8711;DHT22;4392;47.400;8.062;2024-03-08T10:05:19;8.20;99.90
8711;DHT22;4392;47.400;8.062;2024-03-08T10:07:47;8.20;99.90
8711;DHT22;4392;47.400;8.062;2024-03-08T10:10:17;8.20;99.90
8711;DHT22;4392;47.400;8.062;2024-03-08T10:12:43;8.20;99.90
8711;DHT22;4392;47.400;8.062;2024-03-08T10:15:09;8.20;99.70
8711;DHT22;4392;47.400;8.062;2024-03-08T10:17:35;8.20;99.30
8711;DHT22;4392;47.400;8.062;2024-03-08T10:20:01;8.20;99.70
8711;DHT22;4392;47.400;8.062;2024-03-08T10:22:30;8.00;98.90
8711;DHT22;4392;47.400;8.062;2024-03-08T10:25:00;8.00;99.50
8711;DHT22;4392;47.400;8.062;2024-03-08T10:27:28;8.10;99.30
8711;DHT22;4392;47.400;8.062;2024-03-08T10:29:54;8.20;99.00
8711;DHT22;4392;47.400;8.062;2024-03-08T10:32:20;8.20;99.00
8711;DHT22;4392;47.400;8.062;2024-03-08T10:34:46;8.30;98.90
8711;DHT22;4392;47.400;8.062;2024-03-08T10:37:15;8.30;99.20
8711;DHT22;4392;47.400;8.062;2024-03-08T10:40:04;8.40;99.10
8711;DHT22;4392;47.400;8.062;2024-03-08T10:42:53;8.30;99.10
8711;DHT22;4392;47.400;8.062;2024-03-08T10:45:40;8.10;99.50
8711;DHT22;4392;47.400;8.062;2024-03-08T10:48:30;8.30;99.50
8711;DHT22;4392;47.400;8.062;2024-03-08T10:51:04;8.50;99.40
8711;DHT22;4392;47.400;8.062;2024-03-08T10:53:30;8.50;99.20
8711;DHT22;4392;47.400;8.062;2024-03-08T10:55:57;8.60;98.80
8711;DHT22;4392;47.400;8.062;2024-03-08T10:58:27;8.70;98.80
8711;DHT22;4392;47.400;8.062;2024-03-08T11:00:54;8.70;98.80
8711;DHT22;4392;47.400;8.062;2024-03-08T11:06:18;8.90;97.80
8711;DHT22;4392;47.400;8.062;2024-03-08T11:08:48;9.00;97.70
8711;DHT22;4392;47.400;8.062;2024-03-08T11:11:31;9.00;97.70
8711;DHT22;4392;47.400;8.062;2024-03-08T11:14:01;9.00;98.20
8711;DHT22;4392;47.400;8.062;2024-03-08T11:19:01;8.90;97.90
8711;DHT22;4392;47.400;8.062;2024-03-08T11:21:33;9.10;97.50
8711;DHT22;4392;47.400;8.062;2024-03-08T11:24:06;9.20;97.00
8711;DHT22;4392;47.400;8.062;2024-03-08T11:26:33;9.10;96.80
8711;DHT22;4392;47.400;8.062;2024-03-08T11:32:17;9.30;96.10
8711;DHT22;4392;47.400;8.062;2024-03-08T11:34:46;9.30;95.60
8711;DHT22;4392;47.400;8.062;2024-03-08T11:37:18;9.00;96.30
8711;DHT22;4392;47.400;8.062;2024-03-08T11:39:51;9.20;96.40
8711;DHT22;4392;47.400;8.062;2024-03-08T11:42:19;9.40;96.10
8711;DHT22;4392;47.400;8.062;2024-03-08T11:44:45;9.40;95.70
8711;DHT22;4392;47.400;8.062;2024-03-08T11:47:11;9.10;96.40
8711;DHT22;4392;47.400;8.062;2024-03-08T11:49:38;9.10;97.30
8711;DHT22;4392;47.400;8.062;2024-03-08T11:52:04;9.20;97.10
8711;DHT22;4392;47.400;8.062;2024-03-08T11:54:30;9.30;97.30
8711;DHT22;4392;47.400;8.062;2024-03-08T11:56:57;9.30;97.70
8711;DHT22;4392;47.400;8.062;2024-03-08T11:59:28;9.50;97.50
8711;DHT22;4392;47.400;8.062;2024-03-08T12:02:12;9.70;97.00
8711;DHT22;4392;47.400;8.062;2024-03-08T12:04:37;9.40;96.20
8711;DHT22;4392;47.400;8.062;2024-03-08T12:07:06;9.30;96.90
8711;DHT22;4392;47.400;8.062;2024-03-08T12:09:40;9.50;96.90
8711;DHT22;4392;47.400;8.062;2024-03-08T12:12:12;9.60;96.50
8711;DHT22;4392;47.400;8.062;2024-03-08T12:14:38;9.70;96.20
8711;DHT22;4392;47.400;8.062;2024-03-08T12:17:09;9.70;96.20
8711;DHT22;4392;47.400;8.062;2024-03-08T12:19:36;9.70;95.90
8711;DHT22;4392;47.400;8.062;2024-03-08T12:22:09;9.60;96.20
8711;DHT22;4392;47.400;8.062;2024-03-08T12:24:35;9.70;96.30
8711;DHT22;4392;47.400;8.062;2024-03-08T12:27:17;9.70;96.40
8711;DHT22;4392;47.400;8.062;2024-03-08T12:29:43;9.50;95.80
8711;DHT22;4392;47.400;8.062;2024-03-08T12:32:10;9.40;97.30
8711;DHT22;4392;47.400;8.062;2024-03-08T12:34:37;9.30;96.40
8711;DHT22;4392;47.400;8.062;2024-03-08T12:37:02;9.50;97.20
8711;DHT22;4392;47.400;8.062;2024-03-08T12:39:32;9.70;96.90
8711;DHT22;4392;47.400;8.062;2024-03-08T12:41:58;9.80;96.20
8711;DHT22;4392;47.400;8.062;2024-03-08T12:44:25;9.60;96.10
8711;DHT22;4392;47.400;8.062;2024-03-08T12:46:51;9.70;96.40
8711;DHT22;4392;47.400;8.062;2024-03-08T12:49:19;9.80;96.20
8711;DHT22;4392;47.400;8.062;2024-03-08T12:51:47;9.90;96.10
8711;DHT22;4392;47.400;8.062;2024-03-08T12:54:13;10.00;95.40
8711;DHT22;4392;47.400;8.062;2024-03-08T12:56:39;10.00;99.20
8711;DHT22;4392;47.400;8.062;2024-03-08T12:59:06;10.20;95.50
8711;DHT22;4392;47.400;8.062;2024-03-08T13:01:36;10.20;95.20
8711;DHT22;4392;47.400;8.062;2024-03-08T13:04:05;10.40;98.90
8711;DHT22;4392;47.400;8.062;2024-03-08T13:06:36;10.50;96.10
8711;DHT22;4392;47.400;8.062;2024-03-08T13:09:04;11.50;98.70
8711;DHT22;4392;47.400;8.062;2024-03-08T13:11:31;11.20;96.00
8711;DHT22;4392;47.400;8.062;2024-03-08T13:14:02;11.10;95.20
8711;DHT22;4392;47.400;8.062;2024-03-08T13:16:29;11.10;95.10
8711;DHT22;4392;47.400;8.062;2024-03-08T13:18:55;11.30;99.90
8711;DHT22;4392;47.400;8.062;2024-03-08T13:21:22;12.70;99.90
8711;DHT22;4392;47.400;8.062;2024-03-08T13:23:49;13.20;99.90
8711;DHT22;4392;47.400;8.062;2024-03-08T13:26:15;13.40;99.90
8711;DHT22;4392;47.400;8.062;2024-03-08T13:28:48;13.50;99.40
8711;DHT22;4392;47.400;8.062;2024-03-08T13:31:22;13.10;92.80
8711;DHT22;4392;47.400;8.062;2024-03-08T13:33:48;12.70;91.40
8711;DHT22;4392;47.400;8.062;2024-03-08T13:36:23;12.50;91.30
8711;DHT22;4392;47.400;8.062;2024-03-08T13:38:50;12.30;91.40
8711;DHT22;4392;47.400;8.062;2024-03-08T13:41:16;11.80;91.40
8711;DHT22;4392;47.400;8.062;2024-03-08T13:43:46;12.70;99.10
8711;DHT22;4392;47.400;8.062;2024-03-08T13:46:12;13.10;94.30
8711;DHT22;4392;47.400;8.062;2024-03-08T13:48:38;12.80;91.70
8711;DHT22;4392;47.400;8.062;2024-03-08T13:51:04;12.60;90.80
8711;DHT22;4392;47.400;8.062;2024-03-08T13:53:31;12.40;90.50
8711;DHT22;4392;47.400;8.062;2024-03-08T13:55:58;12.40;90.70
8711;DHT22;4392;47.400;8.062;2024-03-08T13:58:24;12.30;90.20
8711;DHT22;4392;47.400;8.062;2024-03-08T14:00:52;12.20;90.10
8711;DHT22;4392;47.400;8.062;2024-03-08T14:03:18;12.20;90.60
8711;DHT22;4392;47.400;8.062;2024-03-08T14:05:46;12.10;90.00
8711;DHT22;4392;47.400;8.062;2024-03-08T14:08:12;12.20;90.50
8711;DHT22;4392;47.400;8.062;2024-03-08T14:10:38;12.00;90.00
8711;DHT22;4392;47.400;8.062;2024-03-08T14:13:04;11.90;90.00
8711;DHT22;4392;47.400;8.062;2024-03-08T14:15:33;12.00;90.60
8711;DHT22;4392;47.400;8.062;2024-03-08T14:17:59;12.20;90.10
8711;DHT22;4392;47.400;8.062;2024-03-08T14:20:27;11.90;90.40
8711;DHT22;4392;47.400;8.062;2024-03-08T14:22:56;12.00;90.80
8711;DHT22;4392;47.400;8.062;2024-03-08T14:25:23;12.00;90.20
8711;DHT22;4392;47.400;8.062;2024-03-08T14:27:50;11.80;89.40
8711;DHT22;4392;47.400;8.062;2024-03-08T14:30:19;11.40;90.80
8711;DHT22;4392;47.400;8.062;2024-03-08T14:33:06;11.50;90.60
8711;DHT22;4392;47.400;8.062;2024-03-08T14:35:38;11.80;90.40
8711;DHT22;4392;47.400;8.062;2024-03-08T14:38:04;11.80;90.60
8711;DHT22;4392;47.400;8.062;2024-03-08T14:40:30;12.00;90.00
8711;DHT22;4392;47.400;8.062;2024-03-08T14:42:56;12.10;91.00
8711;DHT22;4392;47.400;8.062;2024-03-08T14:45:27;12.20;90.40
8711;DHT22;4392;47.400;8.062;2024-03-08T14:47:53;12.30;90.00
8711;DHT22;4392;47.400;8.062;2024-03-08T14:50:22;12.00;90.00
8711;DHT22;4392;47.400;8.062;2024-03-08T14:52:49;12.70;92.50
8711;DHT22;4392;47.400;8.062;2024-03-08T14:55:18;13.30;91.70
8711;DHT22;4392;47.400;8.062;2024-03-08T14:57:50;13.40;92.60
8711;DHT22;4392;47.400;8.062;2024-03-08T15:00:18;14.30;92.90
8711;DHT22;4392;47.400;8.062;2024-03-08T15:02:55;13.80;85.10
8711;DHT22;4392;47.400;8.062;2024-03-08T15:05:22;13.50;85.00
8711;DHT22;4392;47.400;8.062;2024-03-08T15:07:52;13.40;85.50
8711;DHT22;4392;47.400;8.062;2024-03-08T15:10:19;13.20;84.70
8711;DHT22;4392;47.400;8.062;2024-03-08T15:12:48;13.00;84.00
8711;DHT22;4392;47.400;8.062;2024-03-08T15:15:14;14.10;92.30
8711;DHT22;4392;47.400;8.062;2024-03-08T15:17:46;14.10;86.00
8711;DHT22;4392;47.400;8.062;2024-03-08T15:20:13;13.80;83.00
8711;DHT22;4392;47.400;8.062;2024-03-08T15:22:43;13.40;81.80
8711;DHT22;4392;47.400;8.062;2024-03-08T15:25:10;13.40;90.80
8711;DHT22;4392;47.400;8.062;2024-03-08T15:27:40;14.30;92.60
8711;DHT22;4392;47.400;8.062;2024-03-08T15:30:07;14.20;84.50
8711;DHT22;4392;47.400;8.062;2024-03-08T15:32:39;13.90;81.90
8711;DHT22;4392;47.400;8.062;2024-03-08T15:35:07;13.70;80.20
8711;DHT22;4392;47.400;8.062;2024-03-08T15:37:36;13.80;80.80
8711;DHT22;4392;47.400;8.062;2024-03-08T15:40:02;13.80;80.60
8711;DHT22;4392;47.400;8.062;2024-03-08T15:42:31;13.80;79.40
8711;DHT22;4392;47.400;8.062;2024-03-08T15:44:57;13.80;78.80
8711;DHT22;4392;47.400;8.062;2024-03-08T15:47:22;13.60;80.50
8711;DHT22;4392;47.400;8.062;2024-03-08T15:49:51;13.70;79.90
8711;DHT22;4392;47.400;8.062;2024-03-08T15:52:16;13.60;80.00
8711;DHT22;4392;47.400;8.062;2024-03-08T15:54:42;13.60;79.90
8711;DHT22;4392;47.400;8.062;2024-03-08T15:57:09;13.50;79.80
8711;DHT22;4392;47.400;8.062;2024-03-08T15:59:39;13.40;79.90
8711;DHT22;4392;47.400;8.062;2024-03-08T16:02:06;13.30;79.60
8711;DHT22;4392;47.400;8.062;2024-03-08T16:04:33;13.20;80.50
8711;DHT22;4392;47.400;8.062;2024-03-08T16:06:59;13.20;80.50
8711;DHT22;4392;47.400;8.062;2024-03-08T16:09:26;13.30;80.20
8711;DHT22;4392;47.400;8.062;2024-03-08T16:11:57;13.30;79.40
8711;DHT22;4392;47.400;8.062;2024-03-08T16:14:23;13.20;79.10
8711;DHT22;4392;47.400;8.062;2024-03-08T16:16:49;13.10;78.90
8711;DHT22;4392;47.400;8.062;2024-03-08T16:19:15;12.90;78.70
8711;DHT22;4392;47.400;8.062;2024-03-08T16:21:41;12.70;78.60
8711;DHT22;4392;47.400;8.062;2024-03-08T16:24:09;12.50;78.90
8711;DHT22;4392;47.400;8.062;2024-03-08T16:26:35;12.40;79.50